sensor_id;sensor_type;location;lat;lon;timestamp;P1;durP1;ratioP1;P2;durP2;ratioP2
80227;SDS011;69539;42.138;24.742;2024-02-16T00:00:10;5.72;;;4.40;;
80227;SDS011;69539;42.138;24.742;2024-02-16T00:02:36;7.07;;;4.82;;
80227;SDS011;69539;42.138;24.742;2024-02-16T00:05:03;7.88;;;4.78;;
80227;SDS011;69539;42.138;24.742;2024-02-16T00:09:56;6.22;;;4.82;;
80227;SDS011;69539;42.138;24.742;2024-02-16T00:12:22;6.68;;;4.85;;
80227;SDS011;69539;42.138;24.742;2024-02-16T00:14:48;7.05;;;4.97;;
80227;SDS011;69539;42.138;24.742;2024-02-16T00:17:14;7.18;;;4.72;;
80227;SDS011;69539;42.138;24.742;2024-02-16T00:19:40;7.95;;;4.75;;
80227;SDS011;69539;42.138;24.742;2024-02-16T00:22:05;7.05;;;5.13;;
80227;SDS011;69539;42.138;24.742;2024-02-16T00:24:32;6.60;;;4.75;;
80227;SDS011;69539;42.138;24.742;2024-02-16T00:26:59;5.53;;;4.40;;
80227;SDS011;69539;42.138;24.742;2024-02-16T00:29:25;6.65;;;4.80;;
80227;SDS011;69539;42.138;24.742;2024-02-16T00:31:51;7.28;;;5.20;;
80227;SDS011;69539;42.138;24.742;2024-02-16T00:34:16;7.25;;;5.00;;
80227;SDS011;69539;42.138;24.742;2024-02-16T00:36:42;6.40;;;4.85;;
80227;SDS011;69539;42.138;24.742;2024-02-16T00:39:09;8.93;;;5.13;;
80227;SDS011;69539;42.138;24.742;2024-02-16T00:41:35;6.90;;;4.68;;
80227;SDS011;69539;42.138;24.742;2024-02-16T00:44:00;6.28;;;5.03;;
80227;SDS011;69539;42.138;24.742;2024-02-16T00:46:26;7.70;;;4.90;;
80227;SDS011;69539;42.138;24.742;2024-02-16T00:48:52;7.05;;;5.40;;
80227;SDS011;69539;42.138;24.742;2024-02-16T00:51:19;7.25;;;5.38;;
80227;SDS011;69539;42.138;24.742;2024-02-16T00:53:45;7.55;;;5.63;;
80227;SDS011;69539;42.138;24.742;2024-02-16T00:56:11;6.72;;;5.05;;
80227;SDS011;69539;42.138;24.742;2024-02-16T00:58:39;8.10;;;4.97;;
80227;SDS011;69539;42.138;24.742;2024-02-16T01:01:07;8.15;;;5.20;;
80227;SDS011;69539;42.138;24.742;2024-02-16T01:03:35;7.40;;;5.32;;
80227;SDS011;69539;42.138;24.742;2024-02-16T01:06:02;5.88;;;4.47;;
80227;SDS011;69539;42.138;24.742;2024-02-16T01:08:29;7.15;;;5.70;;
80227;SDS011;69539;42.138;24.742;2024-02-16T01:10:55;9.05;;;5.50;;
80227;SDS011;69539;42.138;24.742;2024-02-16T01:13:21;6.88;;;4.97;;
80227;SDS011;69539;42.138;24.742;2024-02-16T01:15:46;7.40;;;4.95;;
80227;SDS011;69539;42.138;24.742;2024-02-16T01:18:12;7.15;;;5.57;;
80227;SDS011;69539;42.138;24.742;2024-02-16T01:20:38;7.13;;;5.15;;
80227;SDS011;69539;42.138;24.742;2024-02-16T01:23:04;7.45;;;5.03;;
80227;SDS011;69539;42.138;24.742;2024-02-16T01:25:30;7.68;;;5.10;;
80227;SDS011;69539;42.138;24.742;2024-02-16T01:27:57;7.00;;;4.88;;
80227;SDS011;69539;42.138;24.742;2024-02-16T01:30:22;8.13;;;5.60;;
80227;SDS011;69539;42.138;24.742;2024-02-16T01:32:48;7.10;;;5.18;;
80227;SDS011;69539;42.138;24.742;2024-02-16T01:35:14;7.10;;;5.07;;
80227;SDS011;69539;42.138;24.742;2024-02-16T01:37:40;6.43;;;4.88;;
80227;SDS011;69539;42.138;24.742;2024-02-16T01:40:07;6.82;;;4.68;;
80227;SDS011;69539;42.138;24.742;2024-02-16T01:42:38;6.60;;;5.18;;
80227;SDS011;69539;42.138;24.742;2024-02-16T01:45:05;6.05;;;4.78;;
80227;SDS011;69539;42.138;24.742;2024-02-16T01:47:32;7.55;;;5.28;;
80227;SDS011;69539;42.138;24.742;2024-02-16T01:49:57;6.47;;;4.88;;
80227;SDS011;69539;42.138;24.742;2024-02-16T01:52:23;6.93;;;4.90;;
80227;SDS011;69539;42.138;24.742;2024-02-16T01:54:49;7.65;;;5.25;;
80227;SDS011;69539;42.138;24.742;2024-02-16T01:57:15;7.78;;;4.90;;
80227;SDS011;69539;42.138;24.742;2024-02-16T01:59:41;7.90;;;4.82;;
80227;SDS011;69539;42.138;24.742;2024-02-16T02:02:06;8.90;;;5.35;;
80227;SDS011;69539;42.138;24.742;2024-02-16T02:04:32;7.47;;;5.00;;
80227;SDS011;69539;42.138;24.742;2024-02-16T02:06:59;7.03;;;4.95;;
80227;SDS011;69539;42.138;24.742;2024-02-16T02:09:24;7.00;;;5.28;;
80227;SDS011;69539;42.138;24.742;2024-02-16T02:11:50;5.72;;;4.63;;
80227;SDS011;69539;42.138;24.742;2024-02-16T02:14:17;6.53;;;4.85;;
80227;SDS011;69539;42.138;24.742;2024-02-16T02:16:42;7.13;;;5.45;;
80227;SDS011;69539;42.138;24.742;2024-02-16T02:19:08;7.07;;;5.10;;
80227;SDS011;69539;42.138;24.742;2024-02-16T02:21:34;7.43;;;5.35;;
80227;SDS011;69539;42.138;24.742;2024-02-16T02:24:00;9.35;;;5.10;;
80227;SDS011;69539;42.138;24.742;2024-02-16T02:26:25;7.07;;;5.03;;
80227;SDS011;69539;42.138;24.742;2024-02-16T02:28:51;6.38;;;5.03;;
80227;SDS011;69539;42.138;24.742;2024-02-16T02:31:16;7.15;;;5.10;;
80227;SDS011;69539;42.138;24.742;2024-02-16T02:33:42;6.30;;;4.55;;
80227;SDS011;69539;42.138;24.742;2024-02-16T02:36:08;6.57;;;5.13;;
80227;SDS011;69539;42.138;24.742;2024-02-16T02:38:33;7.22;;;5.38;;
80227;SDS011;69539;42.138;24.742;2024-02-16T02:41:00;6.72;;;5.30;;
80227;SDS011;69539;42.138;24.742;2024-02-16T02:43:25;6.63;;;4.97;;
80227;SDS011;69539;42.138;24.742;2024-02-16T02:45:51;7.47;;;5.40;;
80227;SDS011;69539;42.138;24.742;2024-02-16T02:48:16;7.50;;;5.20;;
80227;SDS011;69539;42.138;24.742;2024-02-16T02:50:43;8.18;;;4.68;;
80227;SDS011;69539;42.138;24.742;2024-02-16T02:53:08;6.95;;;5.05;;
80227;SDS011;69539;42.138;24.742;2024-02-16T02:55:34;6.93;;;5.07;;
80227;SDS011;69539;42.138;24.742;2024-02-16T02:57:59;10.38;;;5.65;;
80227;SDS011;69539;42.138;24.742;2024-02-16T03:00:25;7.03;;;5.40;;
80227;SDS011;69539;42.138;24.742;2024-02-16T03:02:51;8.15;;;5.63;;
80227;SDS011;69539;42.138;24.742;2024-02-16T03:05:17;9.80;;;5.60;;
80227;SDS011;69539;42.138;24.742;2024-02-16T03:07:45;9.98;;;5.78;;
80227;SDS011;69539;42.138;24.742;2024-02-16T03:10:10;9.63;;;6.25;;
80227;SDS011;69539;42.138;24.742;2024-02-16T03:12:36;9.10;;;5.80;;
80227;SDS011;69539;42.138;24.742;2024-02-16T03:15:01;9.40;;;5.88;;
80227;SDS011;69539;42.138;24.742;2024-02-16T03:17:28;9.02;;;5.82;;
80227;SDS011;69539;42.138;24.742;2024-02-16T03:19:54;8.90;;;5.90;;
80227;SDS011;69539;42.138;24.742;2024-02-16T03:22:20;9.40;;;6.03;;
80227;SDS011;69539;42.138;24.742;2024-02-16T03:24:45;9.02;;;5.43;;
80227;SDS011;69539;42.138;24.742;2024-02-16T03:27:12;7.68;;;5.88;;
80227;SDS011;69539;42.138;24.742;2024-02-16T03:29:39;9.23;;;6.03;;
80227;SDS011;69539;42.138;24.742;2024-02-16T03:32:04;9.60;;;6.25;;
80227;SDS011;69539;42.138;24.742;2024-02-16T03:34:30;8.70;;;5.80;;
80227;SDS011;69539;42.138;24.742;2024-02-16T03:36:56;7.90;;;5.72;;
80227;SDS011;69539;42.138;24.742;2024-02-16T03:39:23;8.52;;;5.63;;
80227;SDS011;69539;42.138;24.742;2024-02-16T03:41:49;7.60;;;5.50;;
80227;SDS011;69539;42.138;24.742;2024-02-16T03:44:15;7.95;;;5.68;;
80227;SDS011;69539;42.138;24.742;2024-02-16T03:49:09;8.15;;;5.15;;
80227;SDS011;69539;42.138;24.742;2024-02-16T03:51:35;9.30;;;5.60;;
80227;SDS011;69539;42.138;24.742;2024-02-16T03:54:02;215.00;;;148.88;;
80227;SDS011;69539;42.138;24.742;2024-02-16T03:56:29;589.70;;;454.35;;
80227;SDS011;69539;42.138;24.742;2024-02-16T03:58:55;398.30;;;243.23;;
80227;SDS011;69539;42.138;24.742;2024-02-16T04:01:20;358.02;;;209.07;;
80227;SDS011;69539;42.138;24.742;2024-02-16T04:03:47;304.73;;;177.98;;
80227;SDS011;69539;42.138;24.742;2024-02-16T04:06:12;212.20;;;120.65;;
80227;SDS011;69539;42.138;24.742;2024-02-16T04:08:38;210.98;;;121.82;;
80227;SDS011;69539;42.138;24.742;2024-02-16T04:11:04;181.13;;;104.72;;
80227;SDS011;69539;42.138;24.742;2024-02-16T04:13:30;167.80;;;102.28;;
80227;SDS011;69539;42.138;24.742;2024-02-16T04:15:57;122.57;;;77.65;;
80227;SDS011;69539;42.138;24.742;2024-02-16T04:18:23;82.68;;;50.78;;
80227;SDS011;69539;42.138;24.742;2024-02-16T04:20:49;77.70;;;48.05;;
80227;SDS011;69539;42.138;24.742;2024-02-16T04:23:15;60.63;;;40.15;;
80227;SDS011;69539;42.138;24.742;2024-02-16T04:25:40;64.32;;;43.33;;
80227;SDS011;69539;42.138;24.742;2024-02-16T04:28:06;55.15;;;36.67;;
80227;SDS011;69539;42.138;24.742;2024-02-16T04:30:31;211.25;;;130.93;;
80227;SDS011;69539;42.138;24.742;2024-02-16T04:32:57;322.13;;;204.43;;
80227;SDS011;69539;42.138;24.742;2024-02-16T04:35:23;230.55;;;143.63;;
80227;SDS011;69539;42.138;24.742;2024-02-16T04:37:48;191.75;;;119.38;;
80227;SDS011;69539;42.138;24.742;2024-02-16T04:40:14;116.07;;;76.63;;
80227;SDS011;69539;42.138;24.742;2024-02-16T04:42:40;93.65;;;62.58;;
80227;SDS011;69539;42.138;24.742;2024-02-16T04:45:06;116.70;;;76.97;;
80227;SDS011;69539;42.138;24.742;2024-02-16T04:47:32;90.70;;;61.38;;
80227;SDS011;69539;42.138;24.742;2024-02-16T04:49:58;67.95;;;43.38;;
80227;SDS011;69539;42.138;24.742;2024-02-16T04:52:24;67.43;;;47.80;;
80227;SDS011;69539;42.138;24.742;2024-02-16T04:54:49;63.05;;;45.38;;
80227;SDS011;69539;42.138;24.742;2024-02-16T04:57:15;51.22;;;34.10;;
80227;SDS011;69539;42.138;24.742;2024-02-16T04:59:41;37.33;;;25.70;;
80227;SDS011;69539;42.138;24.742;2024-02-16T05:02:06;31.88;;;21.95;;
80227;SDS011;69539;42.138;24.742;2024-02-16T05:04:32;22.80;;;16.27;;
80227;SDS011;69539;42.138;24.742;2024-02-16T05:06:57;772.85;;;496.05;;
80227;SDS011;69539;42.138;24.742;2024-02-16T05:09:23;356.60;;;228.35;;
80227;SDS011;69539;42.138;24.742;2024-02-16T05:11:51;360.05;;;219.73;;
80227;SDS011;69539;42.138;24.742;2024-02-16T05:14:17;361.02;;;223.38;;
80227;SDS011;69539;42.138;24.742;2024-02-16T05:16:45;254.07;;;156.73;;
80227;SDS011;69539;42.138;24.742;2024-02-16T05:19:11;160.32;;;99.45;;
80227;SDS011;69539;42.138;24.742;2024-02-16T05:21:37;78.38;;;52.40;;
80227;SDS011;69539;42.138;24.742;2024-02-16T05:24:03;58.70;;;40.53;;
80227;SDS011;69539;42.138;24.742;2024-02-16T05:26:29;51.88;;;34.17;;
80227;SDS011;69539;42.138;24.742;2024-02-16T05:28:55;33.65;;;24.20;;
80227;SDS011;69539;42.138;24.742;2024-02-16T05:31:20;30.23;;;21.15;;
80227;SDS011;69539;42.138;24.742;2024-02-16T05:33:50;25.17;;;17.05;;
80227;SDS011;69539;42.138;24.742;2024-02-16T05:36:19;26.50;;;15.52;;
80227;SDS011;69539;42.138;24.742;2024-02-16T05:38:46;15.52;;;11.35;;
80227;SDS011;69539;42.138;24.742;2024-02-16T05:41:12;407.42;;;292.30;;
80227;SDS011;69539;42.138;24.742;2024-02-16T05:43:38;733.10;;;535.75;;
80227;SDS011;69539;42.138;24.742;2024-02-16T05:46:04;531.10;;;356.05;;
80227;SDS011;69539;42.138;24.742;2024-02-16T05:48:33;356.38;;;219.32;;
80227;SDS011;69539;42.138;24.742;2024-02-16T05:51:02;260.35;;;153.52;;
80227;SDS011;69539;42.138;24.742;2024-02-16T05:53:30;209.53;;;123.07;;
80227;SDS011;69539;42.138;24.742;2024-02-16T05:55:56;134.15;;;83.53;;
80227;SDS011;69539;42.138;24.742;2024-02-16T05:58:22;111.13;;;70.15;;
80227;SDS011;69539;42.138;24.742;2024-02-16T06:00:50;75.43;;;50.05;;
80227;SDS011;69539;42.138;24.742;2024-02-16T06:03:16;69.53;;;47.75;;
80227;SDS011;69539;42.138;24.742;2024-02-16T06:05:42;649.22;;;455.13;;
80227;SDS011;69539;42.138;24.742;2024-02-16T06:08:12;888.20;;;648.90;;
80227;SDS011;69539;42.138;24.742;2024-02-16T06:10:38;668.10;;;479.02;;
80227;SDS011;69539;42.138;24.742;2024-02-16T06:13:04;500.33;;;316.35;;
80227;SDS011;69539;42.138;24.742;2024-02-16T06:15:31;458.83;;;286.48;;
80227;SDS011;69539;42.138;24.742;2024-02-16T06:17:59;337.77;;;204.40;;
80227;SDS011;69539;42.138;24.742;2024-02-16T06:20:25;264.90;;;156.13;;
80227;SDS011;69539;42.138;24.742;2024-02-16T06:22:50;151.27;;;92.55;;
80227;SDS011;69539;42.138;24.742;2024-02-16T06:25:16;115.63;;;71.80;;
80227;SDS011;69539;42.138;24.742;2024-02-16T06:27:42;73.72;;;48.65;;
80227;SDS011;69539;42.138;24.742;2024-02-16T06:30:07;66.53;;;41.67;;
80227;SDS011;69539;42.138;24.742;2024-02-16T06:32:37;267.15;;;185.90;;
80227;SDS011;69539;42.138;24.742;2024-02-16T06:35:04;535.22;;;381.67;;
80227;SDS011;69539;42.138;24.742;2024-02-16T06:37:32;384.77;;;255.82;;
80227;SDS011;69539;42.138;24.742;2024-02-16T06:39:57;386.08;;;259.23;;
80227;SDS011;69539;42.138;24.742;2024-02-16T06:42:23;240.80;;;160.60;;
80227;SDS011;69539;42.138;24.742;2024-02-16T06:44:49;129.90;;;86.32;;
80227;SDS011;69539;42.138;24.742;2024-02-16T06:47:15;65.70;;;47.20;;
80227;SDS011;69539;42.138;24.742;2024-02-16T06:49:40;84.28;;;59.40;;
80227;SDS011;69539;42.138;24.742;2024-02-16T06:52:06;48.92;;;31.90;;
80227;SDS011;69539;42.138;24.742;2024-02-16T06:54:34;45.10;;;34.20;;
80227;SDS011;69539;42.138;24.742;2024-02-16T06:57:00;46.42;;;38.60;;
80227;SDS011;69539;42.138;24.742;2024-02-16T06:59:26;652.22;;;499.95;;
80227;SDS011;69539;42.138;24.742;2024-02-16T07:01:52;520.75;;;412.48;;
80227;SDS011;69539;42.138;24.742;2024-02-16T07:04:18;214.00;;;150.60;;
80227;SDS011;69539;42.138;24.742;2024-02-16T07:06:44;143.60;;;100.53;;
80227;SDS011;69539;42.138;24.742;2024-02-16T07:09:09;107.97;;;78.88;;
80227;SDS011;69539;42.138;24.742;2024-02-16T07:11:35;87.15;;;66.18;;
80227;SDS011;69539;42.138;24.742;2024-02-16T07:14:01;47.88;;;36.80;;
80227;SDS011;69539;42.138;24.742;2024-02-16T07:16:27;39.10;;;30.08;;
80227;SDS011;69539;42.138;24.742;2024-02-16T07:18:53;46.45;;;36.40;;
80227;SDS011;69539;42.138;24.742;2024-02-16T07:21:19;23.63;;;17.60;;
80227;SDS011;69539;42.138;24.742;2024-02-16T07:23:47;24.80;;;20.23;;
80227;SDS011;69539;42.138;24.742;2024-02-16T07:26:13;586.90;;;439.95;;
80227;SDS011;69539;42.138;24.742;2024-02-16T07:28:39;177.52;;;119.47;;
80227;SDS011;69539;42.138;24.742;2024-02-16T07:31:05;110.53;;;82.97;;
80227;SDS011;69539;42.138;24.742;2024-02-16T07:33:31;89.05;;;67.18;;
80227;SDS011;69539;42.138;24.742;2024-02-16T07:35:57;59.55;;;46.30;;
80227;SDS011;69539;42.138;24.742;2024-02-16T07:38:22;38.38;;;29.73;;
80227;SDS011;69539;42.138;24.742;2024-02-16T07:40:48;37.90;;;29.58;;
80227;SDS011;69539;42.138;24.742;2024-02-16T07:43:15;29.15;;;21.75;;
80227;SDS011;69539;42.138;24.742;2024-02-16T07:45:42;25.77;;;18.25;;
80227;SDS011;69539;42.138;24.742;2024-02-16T07:48:08;22.65;;;15.60;;
80227;SDS011;69539;42.138;24.742;2024-02-16T07:50:33;13.35;;;9.85;;
80227;SDS011;69539;42.138;24.742;2024-02-16T07:52:59;13.25;;;9.10;;
80227;SDS011;69539;42.138;24.742;2024-02-16T07:55:25;15.25;;;9.70;;
80227;SDS011;69539;42.138;24.742;2024-02-16T07:57:51;13.48;;;10.20;;
80227;SDS011;69539;42.138;24.742;2024-02-16T08:00:17;13.35;;;8.13;;
80227;SDS011;69539;42.138;24.742;2024-02-16T08:02:42;10.73;;;7.88;;
80227;SDS011;69539;42.138;24.742;2024-02-16T08:05:09;11.07;;;8.02;;
80227;SDS011;69539;42.138;24.742;2024-02-16T08:07:37;8.90;;;7.40;;
80227;SDS011;69539;42.138;24.742;2024-02-16T08:10:03;8.73;;;7.15;;
80227;SDS011;69539;42.138;24.742;2024-02-16T08:12:29;11.80;;;7.35;;
80227;SDS011;69539;42.138;24.742;2024-02-16T08:14:56;11.10;;;7.93;;
80227;SDS011;69539;42.138;24.742;2024-02-16T08:17:23;8.68;;;6.75;;
80227;SDS011;69539;42.138;24.742;2024-02-16T08:19:52;11.25;;;7.47;;
80227;SDS011;69539;42.138;24.742;2024-02-16T08:22:19;8.02;;;6.82;;
80227;SDS011;69539;42.138;24.742;2024-02-16T08:24:45;10.13;;;7.03;;
80227;SDS011;69539;42.138;24.742;2024-02-16T08:27:11;8.48;;;7.13;;
80227;SDS011;69539;42.138;24.742;2024-02-16T08:29:38;10.73;;;7.65;;
80227;SDS011;69539;42.138;24.742;2024-02-16T08:32:04;11.10;;;7.60;;
80227;SDS011;69539;42.138;24.742;2024-02-16T08:34:31;11.27;;;7.50;;
80227;SDS011;69539;42.138;24.742;2024-02-16T08:36:56;12.75;;;7.70;;
80227;SDS011;69539;42.138;24.742;2024-02-16T08:39:22;9.38;;;7.30;;
80227;SDS011;69539;42.138;24.742;2024-02-16T08:41:50;10.60;;;7.32;;
80227;SDS011;69539;42.138;24.742;2024-02-16T08:44:16;9.05;;;7.45;;
80227;SDS011;69539;42.138;24.742;2024-02-16T08:46:43;9.83;;;7.17;;
80227;SDS011;69539;42.138;24.742;2024-02-16T08:49:11;10.25;;;7.07;;
80227;SDS011;69539;42.138;24.742;2024-02-16T08:51:36;9.07;;;6.68;;
80227;SDS011;69539;42.138;24.742;2024-02-16T08:54:02;9.63;;;6.13;;
80227;SDS011;69539;42.138;24.742;2024-02-16T08:56:29;10.10;;;6.32;;
80227;SDS011;69539;42.138;24.742;2024-02-16T08:58:55;8.63;;;6.40;;
80227;SDS011;69539;42.138;24.742;2024-02-16T09:01:39;9.88;;;6.28;;
80227;SDS011;69539;42.138;24.742;2024-02-16T09:04:05;9.30;;;6.55;;
80227;SDS011;69539;42.138;24.742;2024-02-16T09:06:31;7.88;;;6.40;;
80227;SDS011;69539;42.138;24.742;2024-02-16T09:08:57;8.23;;;6.90;;
80227;SDS011;69539;42.138;24.742;2024-02-16T09:11:23;9.15;;;6.97;;
80227;SDS011;69539;42.138;24.742;2024-02-16T09:13:49;9.73;;;6.13;;
80227;SDS011;69539;42.138;24.742;2024-02-16T09:16:15;9.25;;;6.68;;
80227;SDS011;69539;42.138;24.742;2024-02-16T09:18:40;8.57;;;6.95;;
80227;SDS011;69539;42.138;24.742;2024-02-16T09:21:06;8.10;;;6.47;;
80227;SDS011;69539;42.138;24.742;2024-02-16T09:23:33;7.38;;;6.32;;
80227;SDS011;69539;42.138;24.742;2024-02-16T09:25:59;9.48;;;7.57;;
80227;SDS011;69539;42.138;24.742;2024-02-16T09:28:25;589.35;;;525.38;;
80227;SDS011;69539;42.138;24.742;2024-02-16T09:30:53;297.08;;;254.80;;
80227;SDS011;69539;42.138;24.742;2024-02-16T09:33:20;222.18;;;192.65;;
80227;SDS011;69539;42.138;24.742;2024-02-16T09:35:46;176.85;;;150.13;;
80227;SDS011;69539;42.138;24.742;2024-02-16T09:38:12;133.32;;;113.38;;
80227;SDS011;69539;42.138;24.742;2024-02-16T09:40:38;98.05;;;87.18;;
80227;SDS011;69539;42.138;24.742;2024-02-16T09:43:04;87.38;;;78.15;;
80227;SDS011;69539;42.138;24.742;2024-02-16T09:45:30;68.95;;;61.60;;
80227;SDS011;69539;42.138;24.742;2024-02-16T09:47:57;59.25;;;52.95;;
80227;SDS011;69539;42.138;24.742;2024-02-16T09:50:24;46.70;;;41.63;;
80227;SDS011;69539;42.138;24.742;2024-02-16T09:52:51;38.70;;;34.50;;
80227;SDS011;69539;42.138;24.742;2024-02-16T09:55:19;31.85;;;28.48;;
80227;SDS011;69539;42.138;24.742;2024-02-16T09:57:44;29.33;;;25.30;;
80227;SDS011;69539;42.138;24.742;2024-02-16T10:00:10;23.65;;;21.08;;
80227;SDS011;69539;42.138;24.742;2024-02-16T10:02:40;19.10;;;17.08;;
80227;SDS011;69539;42.138;24.742;2024-02-16T10:05:11;19.10;;;16.40;;
80227;SDS011;69539;42.138;24.742;2024-02-16T10:07:41;14.85;;;13.23;;
80227;SDS011;69539;42.138;24.742;2024-02-16T10:10:26;11.43;;;10.23;;
80227;SDS011;69539;42.138;24.742;2024-02-16T10:13:04;10.63;;;8.63;;
80227;SDS011;69539;42.138;24.742;2024-02-16T10:15:31;10.25;;;8.68;;
80227;SDS011;69539;42.138;24.742;2024-02-16T10:18:06;7.97;;;6.70;;
80227;SDS011;69539;42.138;24.742;2024-02-16T10:20:33;8.43;;;6.78;;
80227;SDS011;69539;42.138;24.742;2024-02-16T10:23:06;7.70;;;5.60;;
80227;SDS011;69539;42.138;24.742;2024-02-16T10:25:38;6.10;;;4.88;;
80227;SDS011;69539;42.138;24.742;2024-02-16T10:28:06;8.20;;;4.72;;
80227;SDS011;69539;42.138;24.742;2024-02-16T10:30:37;5.70;;;4.70;;
80227;SDS011;69539;42.138;24.742;2024-02-16T10:33:05;5.72;;;4.53;;
80227;SDS011;69539;42.138;24.742;2024-02-16T10:35:37;5.45;;;4.00;;
80227;SDS011;69539;42.138;24.742;2024-02-16T10:38:03;5.75;;;4.35;;
80227;SDS011;69539;42.138;24.742;2024-02-16T10:40:37;5.30;;;4.05;;
80227;SDS011;69539;42.138;24.742;2024-02-16T10:43:04;5.43;;;3.90;;
80227;SDS011;69539;42.138;24.742;2024-02-16T10:45:36;5.40;;;3.88;;
80227;SDS011;69539;42.138;24.742;2024-02-16T10:48:03;7.15;;;3.92;;
80227;SDS011;69539;42.138;24.742;2024-02-16T10:50:33;339.65;;;288.13;;
80227;SDS011;69539;42.138;24.742;2024-02-16T10:53:12;304.65;;;258.63;;
80227;SDS011;69539;42.138;24.742;2024-02-16T10:55:42;234.30;;;200.73;;
80227;SDS011;69539;42.138;24.742;2024-02-16T10:58:10;170.67;;;142.07;;
80227;SDS011;69539;42.138;24.742;2024-02-16T11:03:16;58.20;;;48.03;;
80227;SDS011;69539;42.138;24.742;2024-02-16T11:05:42;48.03;;;40.78;;
80227;SDS011;69539;42.138;24.742;2024-02-16T11:08:13;41.85;;;37.10;;
80227;SDS011;69539;42.138;24.742;2024-02-16T11:10:40;38.00;;;33.13;;
80227;SDS011;69539;42.138;24.742;2024-02-16T11:13:06;32.72;;;29.15;;
80227;SDS011;69539;42.138;24.742;2024-02-16T11:15:35;28.85;;;23.17;;
80227;SDS011;69539;42.138;24.742;2024-02-16T11:18:03;23.98;;;19.08;;
80227;SDS011;69539;42.138;24.742;2024-02-16T11:20:36;19.50;;;16.30;;
80227;SDS011;69539;42.138;24.742;2024-02-16T11:23:06;15.98;;;12.80;;
80227;SDS011;69539;42.138;24.742;2024-02-16T11:25:34;14.70;;;12.10;;
80227;SDS011;69539;42.138;24.742;2024-02-16T11:28:01;12.75;;;9.98;;
80227;SDS011;69539;42.138;24.742;2024-02-16T11:30:33;10.55;;;9.45;;
80227;SDS011;69539;42.138;24.742;2024-02-16T11:33:02;10.45;;;8.40;;
80227;SDS011;69539;42.138;24.742;2024-02-16T11:35:29;8.97;;;7.43;;
80227;SDS011;69539;42.138;24.742;2024-02-16T11:37:56;7.78;;;6.28;;
80227;SDS011;69539;42.138;24.742;2024-02-16T11:40:22;6.25;;;4.80;;
80227;SDS011;69539;42.138;24.742;2024-02-16T11:42:47;4.90;;;4.03;;
80227;SDS011;69539;42.138;24.742;2024-02-16T11:45:13;4.75;;;3.55;;
80227;SDS011;69539;42.138;24.742;2024-02-16T11:47:39;5.45;;;3.65;;
80227;SDS011;69539;42.138;24.742;2024-02-16T11:52:37;3.92;;;3.53;;
80227;SDS011;69539;42.138;24.742;2024-02-16T11:55:04;4.93;;;3.30;;
80227;SDS011;69539;42.138;24.742;2024-02-16T11:57:33;4.47;;;3.25;;
80227;SDS011;69539;42.138;24.742;2024-02-16T12:00:00;3.53;;;3.20;;
80227;SDS011;69539;42.138;24.742;2024-02-16T12:02:36;4.82;;;3.45;;
80227;SDS011;69539;42.138;24.742;2024-02-16T12:05:02;5.88;;;3.75;;
80227;SDS011;69539;42.138;24.742;2024-02-16T12:07:29;7.23;;;4.10;;
80227;SDS011;69539;42.138;24.742;2024-02-16T12:09:59;6.47;;;4.68;;
80227;SDS011;69539;42.138;24.742;2024-02-16T12:12:31;5.95;;;3.90;;
80227;SDS011;69539;42.138;24.742;2024-02-16T12:14:57;4.85;;;3.53;;
80227;SDS011;69539;42.138;24.742;2024-02-16T12:17:23;5.13;;;3.33;;
80227;SDS011;69539;42.138;24.742;2024-02-16T12:19:50;3.95;;;3.05;;
80227;SDS011;69539;42.138;24.742;2024-02-16T12:22:17;3.45;;;3.10;;
80227;SDS011;69539;42.138;24.742;2024-02-16T12:24:47;5.05;;;3.53;;
80227;SDS011;69539;42.138;24.742;2024-02-16T12:27:16;3.42;;;3.10;;
80227;SDS011;69539;42.138;24.742;2024-02-16T12:29:41;4.47;;;3.33;;
80227;SDS011;69539;42.138;24.742;2024-02-16T12:32:07;4.60;;;3.50;;
80227;SDS011;69539;42.138;24.742;2024-02-16T12:34:36;4.25;;;3.10;;
80227;SDS011;69539;42.138;24.742;2024-02-16T12:37:05;4.32;;;2.90;;
80227;SDS011;69539;42.138;24.742;2024-02-16T12:39:32;4.75;;;2.90;;
80227;SDS011;69539;42.138;24.742;2024-02-16T12:41:59;4.53;;;3.20;;
80227;SDS011;69539;42.138;24.742;2024-02-16T12:44:24;4.70;;;3.05;;
80227;SDS011;69539;42.138;24.742;2024-02-16T12:46:50;4.35;;;3.42;;
80227;SDS011;69539;42.138;24.742;2024-02-16T12:49:16;5.68;;;3.85;;
80227;SDS011;69539;42.138;24.742;2024-02-16T12:51:41;5.72;;;3.90;;
80227;SDS011;69539;42.138;24.742;2024-02-16T12:54:07;6.40;;;4.03;;
80227;SDS011;69539;42.138;24.742;2024-02-16T12:56:38;5.35;;;3.58;;
80227;SDS011;69539;42.138;24.742;2024-02-16T12:59:05;4.68;;;3.20;;
80227;SDS011;69539;42.138;24.742;2024-02-16T13:01:31;3.97;;;3.25;;
80227;SDS011;69539;42.138;24.742;2024-02-16T13:03:57;3.97;;;3.28;;
80227;SDS011;69539;42.138;24.742;2024-02-16T13:06:22;5.22;;;3.30;;
80227;SDS011;69539;42.138;24.742;2024-02-16T13:08:48;4.28;;;3.22;;
80227;SDS011;69539;42.138;24.742;2024-02-16T13:11:14;3.53;;;3.22;;
80227;SDS011;69539;42.138;24.742;2024-02-16T13:13:39;4.35;;;3.17;;
80227;SDS011;69539;42.138;24.742;2024-02-16T13:16:05;4.25;;;2.75;;
80227;SDS011;69539;42.138;24.742;2024-02-16T13:18:31;5.50;;;2.97;;
80227;SDS011;69539;42.138;24.742;2024-02-16T13:20:57;4.10;;;3.05;;
80227;SDS011;69539;42.138;24.742;2024-02-16T13:23:22;3.33;;;2.75;;
80227;SDS011;69539;42.138;24.742;2024-02-16T13:25:48;4.65;;;3.10;;
80227;SDS011;69539;42.138;24.742;2024-02-16T13:28:13;4.43;;;3.22;;
80227;SDS011;69539;42.138;24.742;2024-02-16T13:30:41;5.50;;;3.58;;
80227;SDS011;69539;42.138;24.742;2024-02-16T13:33:07;4.35;;;3.13;;
80227;SDS011;69539;42.138;24.742;2024-02-16T13:35:34;4.50;;;2.85;;
80227;SDS011;69539;42.138;24.742;2024-02-16T13:38:01;6.10;;;3.55;;
80227;SDS011;69539;42.138;24.742;2024-02-16T13:40:26;4.07;;;3.25;;
80227;SDS011;69539;42.138;24.742;2024-02-16T13:42:52;5.65;;;4.00;;
80227;SDS011;69539;42.138;24.742;2024-02-16T13:45:24;5.05;;;3.58;;
80227;SDS011;69539;42.138;24.742;2024-02-16T13:47:51;5.55;;;3.30;;
80227;SDS011;69539;42.138;24.742;2024-02-16T13:50:16;6.63;;;4.15;;
80227;SDS011;69539;42.138;24.742;2024-02-16T13:52:42;5.07;;;3.63;;
80227;SDS011;69539;42.138;24.742;2024-02-16T13:55:08;5.30;;;3.80;;
80227;SDS011;69539;42.138;24.742;2024-02-16T13:57:34;4.82;;;3.20;;
80227;SDS011;69539;42.138;24.742;2024-02-16T13:59:59;5.93;;;3.40;;
80227;SDS011;69539;42.138;24.742;2024-02-16T14:02:25;4.70;;;3.13;;
80227;SDS011;69539;42.138;24.742;2024-02-16T14:04:50;6.55;;;4.20;;
80227;SDS011;69539;42.138;24.742;2024-02-16T14:07:17;5.28;;;3.80;;
80227;SDS011;69539;42.138;24.742;2024-02-16T14:09:43;6.00;;;3.67;;
80227;SDS011;69539;42.138;24.742;2024-02-16T14:12:08;367.77;;;283.08;;
80227;SDS011;69539;42.138;24.742;2024-02-16T14:14:34;132.38;;;96.55;;
80227;SDS011;69539;42.138;24.742;2024-02-16T14:16:59;43.88;;;35.30;;
80227;SDS011;69539;42.138;24.742;2024-02-16T14:19:25;104.35;;;76.43;;
80227;SDS011;69539;42.138;24.742;2024-02-16T14:21:51;55.63;;;42.40;;
80227;SDS011;69539;42.138;24.742;2024-02-16T14:24:16;50.10;;;38.10;;